Devalls Bluff, Arkansas
Current Conditions -  °F | °C
As of 9:35 AM on Friday 19 Dec 2014 (Local Time) from KSGT Reporting Station
Overcast Overcast  
Wind Chill:   Ceiling: 2100
Heat Index:   Visibility: NA
Dew Point:   Wind: 10mph
Humidity: 81%   Direction: 40°NE
Pressure: 30.27"   Gusts: NA
Location:  34.7129°N, 91.5513°W
Report Text: KSGT 191535Z 04009KT OVC021 06/03 A3027 RMK AO1
Loading
Personal Weather Stations






























Interactive Weather Map New forecast layout! Learn more

10-Day Weather Forecast

Advertisements
Track Severe Weather on mobile